createdAt,value
2022-11-01T00:01:21.819Z,98266.63
2022-11-01T00:04:28.273Z,98267.16
2022-11-01T00:07:33.859Z,98263.88
2022-11-01T00:10:42.797Z,98270.00
2022-11-01T00:13:51.369Z,98262.75
2022-11-01T00:16:57.364Z,98263.22
2022-11-01T00:20:04.899Z,98258.66
2022-11-01T00:23:10.550Z,98255.03
2022-11-01T00:26:27.753Z,98258.16
2022-11-01T00:29:33.396Z,98241.94
2022-11-01T00:32:38.924Z,98235.75
2022-11-01T00:35:46.958Z,98237.13
2022-11-01T00:38:55.419Z,98232.13
2022-11-01T00:42:03.648Z,98226.19
2022-11-01T00:45:10.780Z,98231.78
2022-11-01T00:48:16.887Z,98235.78
2022-11-01T00:51:22.466Z,98228.28
2022-11-01T00:54:30.904Z,98235.69
2022-11-01T00:57:43.008Z,98227.53
2022-11-01T01:00:51.675Z,98222.84
2022-11-01T01:03:57.330Z,98224.91
2022-11-01T01:07:03.051Z,98227.81
2022-11-01T01:10:12.512Z,98221.22
2022-11-01T01:13:21.241Z,98218.47
2022-11-01T01:16:30.303Z,98215.38
2022-11-01T01:19:55.976Z,98220.84
2022-11-01T01:23:21.515Z,98212.22
2022-11-01T01:26:49.900Z,98201.72
2022-11-01T01:30:19.192Z,98204.53
2022-11-01T01:33:45.050Z,98201.22
2022-11-01T01:37:10.871Z,98195.63
2022-11-01T01:40:37.285Z,98186.34
2022-11-01T01:44:09.011Z,98193.31
2022-11-01T01:47:42.546Z,98185.50
2022-11-01T01:51:16.768Z,98196.91
2022-11-01T01:54:42.563Z,98197.91
2022-11-01T01:58:13.214Z,98189.41
2022-11-01T02:01:43.335Z,98187.28
2022-11-01T02:05:24.652Z,98182.44
2022-11-01T02:08:56.328Z,98184.94
2022-11-01T02:12:22.506Z,98177.81
2022-11-01T02:16:28.532Z,98180.59
2022-11-01T02:20:39.980Z,98172.22
2022-11-01T02:24:47.339Z,98167.47
2022-11-01T02:28:46.325Z,98175.19
2022-11-01T02:32:29.145Z,98184.97
2022-11-01T02:35:55.097Z,98177.56
2022-11-01T02:42:32.124Z,98184.50
2022-11-01T02:45:46.323Z,98179.34
2022-11-01T02:48:56.411Z,98186.81
2022-11-01T02:52:19.228Z,98175.44
2022-11-01T02:55:34.245Z,98175.84
2022-11-01T02:58:41.488Z,98179.13
2022-11-01T03:01:56.415Z,98176.69
2022-11-01T03:05:05.595Z,98177.47
2022-11-01T03:08:18.142Z,98174.84
2022-11-01T03:11:31.116Z,98171.06
2022-11-01T03:14:50.335Z,98176.56
2022-11-01T03:18:07.599Z,98180.91
2022-11-01T03:21:28.790Z,98191.13
2022-11-01T03:24:47.416Z,98192.22
2022-11-01T03:27:53.026Z,98185.25
2022-11-01T03:31:05.692Z,98191.34
2022-11-01T03:34:20.166Z,98189.19
2022-11-01T03:37:29.875Z,98188.13
2022-11-01T03:40:41.980Z,98198.63
2022-11-01T03:43:48.676Z,98193.13
2022-11-01T03:46:54.406Z,98190.72
2022-11-01T03:50:18.317Z,98182.16
2022-11-01T03:53:26.964Z,98179.88
2022-11-01T03:56:32.673Z,98172.16
2022-11-01T03:59:38.298Z,98171.19
2022-11-01T04:02:44.019Z,98166.28
2022-11-01T04:05:49.626Z,98160.97
2022-11-01T04:08:58.102Z,98158.06
2022-11-01T04:12:03.651Z,98152.03
2022-11-01T04:15:38.908Z,98157.81
2022-11-01T04:19:08.774Z,98154.44
2022-11-01T04:22:14.601Z,98157.31
2022-11-01T04:25:22.908Z,98156.84
2022-11-01T04:28:28.610Z,98147.31
2022-11-01T04:31:37.116Z,98143.78
2022-11-01T04:34:46.101Z,98149.66
2022-11-01T04:38:00.826Z,98147.69
2022-11-01T04:41:09.400Z,98153.81
2022-11-01T04:44:15.394Z,98155.88
2022-11-01T04:47:21.082Z,98144.13
2022-11-01T04:50:26.692Z,98137.63
2022-11-01T04:53:32.410Z,98129.78
2022-11-01T04:56:40.638Z,98124.25
2022-11-01T04:59:46.191Z,98122.84
2022-11-01T05:02:52.888Z,98125.13
2022-11-01T05:05:58.450Z,98140.75
2022-11-01T05:09:10.470Z,98137.56
2022-11-01T05:12:19.380Z,98127.19
2022-11-01T05:15:25.068Z,98132.28
2022-11-01T05:18:30.668Z,98132.28
2022-11-01T05:21:36.572Z,98129.34
2022-11-01T05:28:15.626Z,98121.44
2022-11-01T05:31:21.180Z,98119.44
2022-11-01T05:34:26.942Z,98105.78
2022-11-01T05:37:32.546Z,98111.09
2022-11-01T05:40:38.273Z,98106.19
2022-11-01T05:43:46.469Z,98110.63
2022-11-01T05:46:52.013Z,98107.50
2022-11-01T05:49:57.732Z,98111.16
2022-11-01T05:53:10.503Z,98110.78
2022-11-01T05:56:16.236Z,98112.88
2022-11-01T05:59:24.458Z,98116.53
2022-11-01T06:02:30.471Z,98113.94
2022-11-01T06:05:37.897Z,98118.31
2022-11-01T06:08:43.513Z,98114.50
2022-11-01T06:11:49.136Z,98114.16
2022-11-01T06:14:57.347Z,98126.25
2022-11-01T06:18:03.210Z,98128.00
2022-11-01T06:21:09.509Z,98119.97
2022-11-01T06:24:15.496Z,98112.00
2022-11-01T06:27:21.195Z,98109.03
2022-11-01T06:30:33.502Z,98108.34
2022-11-01T06:33:39.269Z,98118.69
2022-11-01T06:36:46.668Z,98110.09
2022-11-01T06:39:52.302Z,98112.03
2022-11-01T06:43:03.774Z,98119.06
2022-11-01T06:46:12.371Z,98123.31
2022-11-01T06:49:21.525Z,98124.97
2022-11-01T06:52:27.282Z,98115.28
2022-11-01T06:55:33.204Z,98117.78
2022-11-01T06:58:38.874Z,98122.09
2022-11-01T07:01:49.457Z,98120.44
2022-11-01T07:04:55.261Z,98119.41
2022-11-01T07:08:01.243Z,98113.28
2022-11-01T07:11:07.548Z,98128.78
2022-11-01T07:14:13.330Z,98128.91
2022-11-01T07:17:21.876Z,98125.53
2022-11-01T07:20:28.181Z,98114.44
2022-11-01T07:23:34.860Z,98130.91
2022-11-01T07:26:40.520Z,98124.50
2022-11-01T07:29:46.305Z,98118.25
2022-11-01T07:32:59.109Z,98120.44
2022-11-01T07:36:06.010Z,98123.69
2022-11-01T07:39:11.705Z,98133.66
2022-11-01T07:42:17.301Z,98131.19
2022-11-01T07:45:23.061Z,98121.22
2022-11-01T07:48:35.324Z,98125.97
2022-11-01T07:51:41.038Z,98118.94
2022-11-01T07:54:46.732Z,98116.72
2022-11-01T07:57:52.370Z,98117.84
2022-11-01T08:00:58.414Z,98120.56
2022-11-01T08:04:07.356Z,98114.97
2022-11-01T08:07:13.073Z,98124.25
2022-11-01T08:10:19.063Z,98133.81
2022-11-01T08:13:27.474Z,98122.38
2022-11-01T08:16:36.458Z,98134.09
2022-11-01T08:19:44.794Z,98134.94
2022-11-01T08:22:50.539Z,98133.34
2022-11-01T08:25:56.271Z,98130.75
2022-11-01T08:29:02.178Z,98130.78
2022-11-01T08:32:08.034Z,98127.94
2022-11-01T08:35:16.496Z,98128.09
2022-11-01T08:38:22.660Z,98134.41
2022-11-01T08:41:28.564Z,98140.03
2022-11-01T08:44:34.988Z,98139.22
2022-11-01T08:47:40.624Z,98122.19
2022-11-01T08:50:49.720Z,98129.31
2022-11-01T08:53:58.141Z,98122.44
2022-11-01T08:57:04.797Z,98128.56
2022-11-01T09:00:13.955Z,98131.13
2022-11-01T09:03:19.836Z,98134.31
2022-11-01T09:06:33.701Z,98142.13
2022-11-01T09:09:41.929Z,98146.44
2022-11-01T09:12:47.619Z,98148.03
2022-11-01T09:15:54.618Z,98149.53
2022-11-01T09:19:02.816Z,98151.25
2022-11-01T09:22:11.212Z,98145.53
2022-11-01T09:25:16.926Z,98158.19
2022-11-01T09:28:23.260Z,98156.41
2022-11-01T09:31:29.667Z,98157.22
2022-11-01T09:34:35.364Z,98159.69
2022-11-01T09:37:43.670Z,98167.75
2022-11-01T09:41:00.418Z,98167.75
2022-11-01T09:44:16.252Z,98168.03
2022-11-01T09:47:36.357Z,98173.34
2022-11-01T09:50:45.635Z,98173.91
2022-11-01T09:54:01.075Z,98162.41
2022-11-01T09:57:22.052Z,98165.38
2022-11-01T10:00:45.464Z,98169.16
2022-11-01T10:04:17.133Z,98157.19
2022-11-01T10:07:40.359Z,98160.13
2022-11-01T10:11:14.355Z,98157.06
2022-11-01T10:14:48.185Z,98156.38
2022-11-01T10:17:57.101Z,98146.03
2022-11-01T10:21:13.844Z,98139.78
2022-11-01T10:24:39.478Z,98157.34
2022-11-01T10:28:02.331Z,98147.22
2022-11-01T10:31:19.675Z,98149.53
2022-11-01T10:34:36.132Z,98149.88
2022-11-01T10:38:11.422Z,98149.06
2022-11-01T10:41:34.096Z,98145.41
2022-11-01T10:44:54.966Z,98144.47
2022-11-01T10:48:02.248Z,98150.16
2022-11-01T10:51:15.208Z,98140.50
2022-11-01T10:54:29.323Z,98145.44
2022-11-01T10:57:45.282Z,98145.72
2022-11-01T11:00:56.128Z,98142.78
2022-11-01T11:04:11.102Z,98148.19
2022-11-01T11:07:21.440Z,98152.00
2022-11-01T11:10:36.462Z,98155.00
2022-11-01T11:13:47.115Z,98160.84
2022-11-01T11:16:59.976Z,98153.41
2022-11-01T11:20:14.136Z,98157.19
2022-11-01T11:23:25.581Z,98148.84
2022-11-01T11:30:13.852Z,98152.84
2022-11-01T11:33:23.701Z,98146.38
2022-11-01T11:36:36.835Z,98156.91
2022-11-01T11:40:19.696Z,98148.00
2022-11-01T11:43:34.362Z,98141.00
2022-11-01T11:47:00.225Z,98154.00
2022-11-01T11:50:32.527Z,98153.53
2022-11-01T11:53:38.395Z,98160.00
2022-11-01T11:56:45.183Z,98155.22
2022-11-01T11:59:58.075Z,98157.41
2022-11-01T12:03:09.940Z,98158.50
2022-11-01T12:06:25.303Z,98164.53
2022-11-01T12:09:48.065Z,98162.38
2022-11-01T12:12:57.674Z,98179.41
2022-11-01T12:16:24.767Z,98164.81
2022-11-01T12:19:33.895Z,98158.41
2022-11-01T12:22:51.454Z,98158.38
2022-11-01T12:26:02.713Z,98168.38
2022-11-01T12:29:31.958Z,98159.16
2022-11-01T12:32:52.589Z,98171.06
2022-11-01T12:35:59.968Z,98165.75
2022-11-01T12:39:36.906Z,98175.50
2022-11-01T12:42:54.532Z,98176.31
2022-11-01T12:46:07.603Z,98170.28
2022-11-01T12:49:29.893Z,98162.91
2022-11-01T12:52:49.875Z,98180.03
2022-11-01T12:56:02.175Z,98177.34
2022-11-01T12:59:19.566Z,98180.63
2022-11-01T13:03:07.943Z,98188.06
2022-11-01T13:06:40.443Z,98172.59
2022-11-01T13:10:03.005Z,98181.84
2022-11-01T13:13:29.512Z,98182.44
2022-11-01T13:16:45.837Z,98182.50
2022-11-01T13:20:14.813Z,98199.41
2022-11-01T13:23:34.568Z,98193.44
2022-11-01T13:26:54.934Z,98195.63
2022-11-01T13:30:13.984Z,98203.47
2022-11-01T13:33:38.939Z,98206.53
2022-11-01T13:36:59.133Z,98202.13
2022-11-01T13:40:25.153Z,98197.06
2022-11-01T13:43:40.861Z,98204.41
2022-11-01T13:47:22.700Z,98204.84
2022-11-01T13:51:11.267Z,98217.53
2022-11-01T13:54:29.527Z,98210.25
2022-11-01T13:57:45.350Z,98207.44
2022-11-01T14:00:54.631Z,98212.84
2022-11-01T14:04:57.884Z,98208.81
2022-11-01T14:08:38.615Z,98215.13
2022-11-01T14:11:50.898Z,98223.56
2022-11-01T14:14:56.635Z,98224.41
2022-11-01T14:18:10.551Z,98223.50
2022-11-01T14:21:39.527Z,98230.91
2022-11-01T14:25:02.817Z,98220.25
2022-11-01T14:28:32.843Z,98227.50
2022-11-01T14:31:45.982Z,98213.69
2022-11-01T14:35:21.479Z,98212.41
2022-11-01T14:38:44.441Z,98210.59
2022-11-01T14:41:56.448Z,98218.13
2022-11-01T14:45:09.276Z,98208.78
2022-11-01T14:48:24.569Z,98225.78
2022-11-01T14:51:41.653Z,98212.63
2022-11-01T14:55:00.563Z,98215.19
2022-11-01T14:58:23.688Z,98219.88
2022-11-01T15:01:29.356Z,98221.19
2022-11-01T15:04:44.053Z,98233.97
2022-11-01T15:08:00.492Z,98226.25
2022-11-01T15:11:22.812Z,98232.97
2022-11-01T15:14:39.537Z,98217.31
2022-11-01T15:17:54.415Z,98211.44
2022-11-01T15:21:04.939Z,98218.78
2022-11-01T15:24:28.094Z,98228.94
2022-11-01T15:27:44.904Z,98230.44
2022-11-01T15:31:00.107Z,98231.56
2022-11-01T15:34:22.914Z,98230.34
2022-11-01T15:37:33.670Z,98231.13
2022-11-01T15:40:40.530Z,98235.66
2022-11-01T15:43:55.274Z,98233.66
2022-11-01T15:47:09.953Z,98243.00
2022-11-01T15:50:16.843Z,98239.81
2022-11-01T15:53:28.775Z,98242.66
2022-11-01T15:56:50.344Z,98242.06
2022-11-01T16:00:18.726Z,98252.50
2022-11-01T16:03:34.298Z,98254.97
2022-11-01T16:06:51.130Z,98257.50
2022-11-01T16:10:10.583Z,98252.53
2022-11-01T16:13:23.017Z,98246.81
2022-11-01T16:17:01.498Z,98244.13
2022-11-01T16:20:34.430Z,98254.28
2022-11-01T16:23:40.457Z,98259.53
2022-11-01T16:26:58.595Z,98257.31
2022-11-01T16:30:08.739Z,98257.03
2022-11-01T16:33:32.909Z,98250.81
2022-11-01T16:36:43.031Z,98256.84
2022-11-01T16:39:49.910Z,98264.78
2022-11-01T16:42:56.131Z,98263.22
2022-11-01T16:46:09.547Z,98273.34
2022-11-01T16:49:24.938Z,98268.91
2022-11-01T16:52:30.624Z,98274.13
2022-11-01T16:55:37.360Z,98282.91
2022-11-01T16:58:43.700Z,98271.97
2022-11-01T17:01:50.915Z,98274.56
2022-11-01T17:05:09.460Z,98274.47
2022-11-01T17:08:15.477Z,98291.31
2022-11-01T17:11:21.118Z,98289.09
2022-11-01T17:14:27.012Z,98291.34
2022-11-01T17:17:34.208Z,98306.56
2022-11-01T17:20:50.934Z,98310.41
2022-11-01T17:23:56.723Z,98311.22
2022-11-01T17:27:07.554Z,98316.03
2022-11-01T17:30:14.884Z,98315.91
2022-11-01T17:33:20.707Z,98303.84
2022-11-01T17:36:29.148Z,98313.25
2022-11-01T17:39:35.191Z,98316.19
2022-11-01T17:42:40.961Z,98310.06
2022-11-01T17:45:47.011Z,98310.00
2022-11-01T17:48:56.515Z,98307.34
2022-11-01T17:52:04.819Z,98325.63
2022-11-01T17:55:17.890Z,98320.53
2022-11-01T17:58:25.443Z,98317.47
2022-11-01T18:01:32.559Z,98318.31
2022-11-01T18:04:38.642Z,98331.91
2022-11-01T18:07:52.862Z,98323.94
2022-11-01T18:11:16.423Z,98317.31
2022-11-01T18:14:48.098Z,98321.78
2022-11-01T18:18:21.420Z,98321.66
2022-11-01T18:21:38.903Z,98327.19
2022-11-01T18:24:55.914Z,98318.56
2022-11-01T18:28:05.987Z,98323.66
2022-11-01T18:31:28.278Z,98314.81
2022-11-01T18:34:47.278Z,98318.22
2022-11-01T18:38:18.717Z,98328.31
2022-11-01T18:41:30.293Z,98322.88
2022-11-01T18:44:35.894Z,98343.97
2022-11-01T18:47:50.845Z,98335.50
2022-11-01T18:51:05.933Z,98335.06
2022-11-01T18:54:29.007Z,98334.50
2022-11-01T18:57:38.336Z,98336.03
2022-11-01T19:00:44.594Z,98340.88
2022-11-01T19:04:01.619Z,98337.22
2022-11-01T19:07:15.870Z,98340.19
2022-11-01T19:10:27.249Z,98338.53
2022-11-01T19:13:38.047Z,98349.06
2022-11-01T19:16:45.090Z,98350.03
2022-11-01T19:19:51.653Z,98355.00
2022-11-01T19:23:04.145Z,98355.34
2022-11-01T19:26:26.056Z,98356.84
2022-11-01T19:29:38.883Z,98359.47
2022-11-01T19:32:44.786Z,98365.00
2022-11-01T19:35:58.485Z,98373.47
2022-11-01T19:39:16.831Z,98365.63
2022-11-01T19:42:31.753Z,98380.13
2022-11-01T19:45:54.943Z,98368.81
2022-11-01T19:49:00.789Z,98382.72
2022-11-01T19:52:29.677Z,98376.81
2022-11-01T19:55:47.139Z,98379.78
2022-11-01T19:58:57.833Z,98371.16
2022-11-01T20:02:19.817Z,98376.16
2022-11-01T20:05:33.319Z,98374.16
2022-11-01T20:08:40.662Z,98380.25
2022-11-01T20:11:46.293Z,98388.03
2022-11-01T20:14:53.091Z,98386.75
2022-11-01T20:18:05.212Z,98393.59
2022-11-01T20:21:12.120Z,98396.38
2022-11-01T20:24:18.339Z,98399.69
2022-11-01T20:27:24.221Z,98396.69
2022-11-01T20:30:29.956Z,98407.13
2022-11-01T20:33:38.377Z,98407.81
2022-11-01T20:37:02.153Z,98413.66
2022-11-01T20:40:13.495Z,98420.97
2022-11-01T20:43:19.561Z,98407.31
2022-11-01T20:46:25.569Z,98422.63
2022-11-01T20:49:33.835Z,98419.31
2022-11-01T20:52:40.309Z,98418.75
2022-11-01T20:55:49.259Z,98422.06
2022-11-01T20:58:54.908Z,98431.91
2022-11-01T21:02:01.025Z,98434.25
2022-11-01T21:05:23.791Z,98428.03
2022-11-01T21:08:34.459Z,98434.84
2022-11-01T21:11:47.301Z,98431.41
2022-11-01T21:14:53.054Z,98443.94
2022-11-01T21:18:41.975Z,98442.38
2022-11-01T21:21:55.683Z,98443.47
2022-11-01T21:25:03.239Z,98440.78
2022-11-01T21:28:32.533Z,98435.44
2022-11-01T21:31:42.628Z,98430.44
2022-11-01T21:34:49.717Z,98436.97
2022-11-01T21:37:59.872Z,98444.44
2022-11-01T21:41:28.528Z,98442.13
2022-11-01T21:44:41.875Z,98437.75
2022-11-01T21:47:47.556Z,98435.22
2022-11-01T21:50:53.369Z,98431.69
2022-11-01T21:54:04.407Z,98443.16
2022-11-01T21:57:14.131Z,98439.94
2022-11-01T22:00:20.429Z,98440.63
2022-11-01T22:03:26.232Z,98431.41
2022-11-01T22:06:32.107Z,98427.56
2022-11-01T22:09:46.796Z,98430.19
2022-11-01T22:12:52.587Z,98425.84
2022-11-01T22:16:00.610Z,98425.75
2022-11-01T22:19:07.266Z,98427.09
2022-11-01T22:22:13.051Z,98426.75
2022-11-01T22:25:21.922Z,98425.13
2022-11-01T22:28:27.671Z,98425.75
2022-11-01T22:31:33.427Z,98434.09
2022-11-01T22:34:39.127Z,98428.81
2022-11-01T22:37:45.237Z,98430.19
2022-11-01T22:40:59.645Z,98431.84
2022-11-01T22:44:08.599Z,98423.84
2022-11-01T22:47:26.950Z,98421.47
2022-11-01T22:50:32.622Z,98425.28
2022-11-01T22:53:38.399Z,98428.81
2022-11-01T22:56:47.389Z,98420.06
2022-11-01T22:59:58.229Z,98425.03
2022-11-01T23:03:22.757Z,98419.94
2022-11-01T23:06:36.497Z,98427.31
2022-11-01T23:09:49.403Z,98431.19
2022-11-01T23:13:35.473Z,98432.09
2022-11-01T23:16:47.469Z,98427.75
2022-11-01T23:19:58.560Z,98430.31
2022-11-01T23:23:05.003Z,98424.81
2022-11-01T23:26:12.421Z,98428.53
2022-11-01T23:29:20.718Z,98426.34
2022-11-01T23:32:28.638Z,98420.88
2022-11-01T23:35:35.829Z,98416.88
2022-11-01T23:38:49.160Z,98408.88
2022-11-01T23:41:57.591Z,98414.31
2022-11-01T23:45:06.569Z,98424.00
2022-11-01T23:48:12.802Z,98426.78
2022-11-01T23:51:24.470Z,98426.63
2022-11-01T23:54:42.301Z,98430.09
2022-11-01T23:57:54.157Z,98436.09
